Nearby METAR Reports

 

LIBV - Gioia Del Colle, Italy
Distance from station: SSE 15km
Ultima actualizare: 17/07/2018 12:55
Ploaie ușoară, In mare parte înorat
Ploaie ușoară, In mare parte înorat
 Vânt dela N
Vântul: N 13 km/h
Temperatura: 23°C
Punct de rouă: 18°C
Umiditate: 74%
Barometru: 1010 hPa
Sumar: Ploaie ușoară
Clouds: In mare parte înorat
Visibility: 7 km
Cloud details: Parțial înorat 792 m
In mare parte înorat 1372 m
2018/07/17 10:55 LIBV 171055Z 35007KT 7000 -RA SCT026 BKN045 23/18 Q1010 RMK OVC VIS MIN 5000W WIND THR32 /////KT WIND THR14 35009KT WHT
LIBD - Bari/Palese Macc, Italy
Distance from station: NNV 26km
Ultima actualizare: 17/07/2018 13:20
Parțial înorat
Parțial înorat
 Vânt dela NNE
Vântul: NNE 19 km/h
Temperatura: 25°C
Punct de rouă: 18°C
Umiditate: 65%
Barometru: 1010 hPa
Clouds: Parțial înorat
Visibility: 10 km
Cloud details: Few Clouds 457 m
Parțial înorat 762 m
2018/07/17 11:20 LIBD 171120Z 03010KT 360V060 9999 FEW015 SCT025 25/18 Q1010
LIBH - Marina Di Ginosa, Italy
Distance from station: S 53km
Ultima actualizare: 17/07/2018 12:55
Acoperit cu nori
Acoperit cu nori
 Vânt dela V
Vântul: V 4 km/h
Temperatura: 27°C
Heat Index: 31°C
Punct de rouă: 24°C
Umiditate: 84%
Barometru: 1008 hPa
Clouds: Acoperit cu nori
Visibility: 10 km
Cloud details: Parțial înorat 610 m
Acoperit cu nori 762 m
2018/07/17 10:55 LIBH 171055Z 26002KT 9999 SCT020 OVC025 27/24 Q1008 RMK OVC QUK 1 QUL 1 SW VIS MAR 20 KM VIS MIN 9999
 
LIBG - Grottaglie(Civ/A, Italy
Distance from station: SE 61km
Ultima actualizare: 17/07/2018 13:00
Precipitații, Parțial înorat
Precipitații, Parțial înorat
 Vânt dela NNE
Vântul: NNE 17 km/h
Temperatura: 26°C
Punct de rouă: 19°C
Umiditate: 65%
Barometru: 1007 hPa
Sumar: Precipitații
Clouds: Parțial înorat
Visibility: 10 km
Cloud details: Parțial înorat 762 m
2018/07/17 11:00 LIBG 171100Z 02009KT 9999 RA SCT025 26/19 Q1007
LIBR - Brindisi/Casale, Italy
Distance from station: ESE 96km
Ultima actualizare: 17/07/2018 13:20
Parțial înorat
Parțial înorat
 Vânt dela NV
Vântul: NV 28 km/h
Temperatura: 27°C
Heat Index: 29°C
Punct de rouă: 21°C
Umiditate: 70%
Barometru: 1008 hPa
Clouds: Parțial înorat
Visibility: 10 km
Cloud details: Parțial înorat 1219 m
2018/07/17 11:20 LIBR 171120Z 31015KT 9999 SCT040 27/21 Q1008
LIBA - Amendola (it-Afb, Italy
Distance from station: NV 118km
Ultima actualizare: 17/07/2018 12:55
In mare parte înorat
In mare parte înorat
 Vânt dela NE
Vântul: NE 11 km/h
Temperatura: 23°C
Punct de rouă: 20°C
Umiditate: 83%
Barometru: 1010 hPa
Clouds: In mare parte înorat
Visibility: 10 km
Cloud details: Few Clouds 457 m
Parțial înorat 762 m
In mare parte înorat 1524 m
2018/07/17 10:55 LIBA 171055Z 05006KT 9999 FEW015 SCT025 BKN050 23/20 Q1010 RMK BKN VIS MIN 9999 WIND THR11 06007KT WIND THR29 /////KT BLU
 
LIBF - Foggia/Gino Lisa, Italy
Distance from station: VNV 126km
Ultima actualizare: 17/07/2018 12:50
In mare parte înorat
In mare parte înorat
 Vânt dela NE
Vântul: NE 11 km/h
Temperatura: 22°C
Punct de rouă: 19°C
Umiditate: 83%
Barometru: 1010 hPa
Clouds: In mare parte înorat
Visibility: 10 km
Cloud details: Parțial înorat 610 m
In mare parte înorat 914 m
2018/07/17 10:50 LIBF 171050Z 05006KT 360V080 9999 SCT020 BKN030 22/19 Q1010
LIBN - Lecce (it-Afb), Italy
Distance from station: SE 132km
Ultima actualizare: 17/07/2018 13:15
Light thunderstorm, Precipitații, In mare parte înorat
Light thunderstorm, Precipitații, In mare parte înorat
 Vânt dela NV
Vântul: NV 26 km/h
Temperatura: 25°C
Punct de rouă: 23°C
Umiditate: 89%
Barometru: 1008 hPa
Sumar: Light thunderstorm, Precipitații
Clouds: In mare parte înorat
Visibility: 5 km
Cloud details: Few Clouds 762 m
In mare parte înorat 914 m
2018/07/17 11:15 LIBN 171115Z 32014KT 5000 -TSRA FEW025CB BKN030 25/23 Q1008 RMK BKN VIS MIN 5000 WIND THR14 31014KT WIND THR32 32015KT WHT